Time;durP1;ratioP1;P1;durP2;ratioP2;P2;SDS_P1;SDS_P2;PMS_P1;PMS_P2;Temp;Humidity;BMP_temperature;BMP_pressure;BME280_temperature;BME280_humidity;BME280_pressure;Samples;Min_cycle;Max_cycle;Signal;HPM_P1;HPM_P2
2022/08/03 00:01:06;;;;;;;4.65;3.20;;;21.50;1.00;;;;;;7365551;19;20014;-68
2022/08/03 00:03:35;;;;;;;7.13;3.53;;;21.50;1.00;;;;;;7368805;19;20078;-69
2022/08/03 00:06:06;;;;;;;5.47;4.10;;;21.60;1.00;;;;;;7368087;19;20014;-69
2022/08/03 00:08:36;;;;;;;4.53;3.40;;;21.60;1.00;;;;;;7367305;19;20074;-69
2022/08/03 00:11:09;;;;;;;7.53;4.35;;;21.60;1.00;;;;;;7366103;19;20010;-68
2022/08/03 00:13:41;;;;;;;5.35;3.53;;;21.60;1.00;;;;;;7389661;19;20104;-68
2022/08/03 00:16:12;;;;;;;6.38;4.13;;;21.70;1.00;;;;;;7368106;19;20014;-68
2022/08/03 00:18:42;;;;;;;5.60;4.68;;;21.70;1.00;;;;;;7365699;19;20445;-69
2022/08/03 00:21:12;;;;;;;5.45;4.15;;;21.70;1.00;;;;;;7365980;19;20017;-69
2022/08/03 00:23:54;;;;;;;6.93;3.72;;;21.60;1.00;;;;;;7368069;19;20015;-69
2022/08/03 00:26:24;;;;;;;5.88;4.05;;;21.50;1.00;;;;;;7368391;19;20019;-68
2022/08/03 00:28:56;;;;;;;5.85;3.90;;;21.50;1.00;;;;;;7387835;19;20074;-68
2022/08/03 00:31:26;;;;;;;7.35;4.05;;;21.50;1.00;;;;;;7362291;19;20089;-69
2022/08/03 00:34:16;;;;;;;6.55;3.90;;;21.50;1.00;;;;;;7368902;19;20102;-69
2022/08/03 00:36:59;;;;;;;4.85;4.18;;;21.40;1.00;;;;;;7367149;19;20007;-69
2022/08/03 00:39:29;;;;;;;4.20;3.75;;;21.40;1.00;;;;;;7361360;19;20113;-69
2022/08/03 00:41:59;;;;;;;5.20;3.72;;;21.30;1.00;;;;;;7366254;19;20003;-69
2022/08/03 00:44:31;;;;;;;6.97;3.80;;;21.20;1.00;;;;;;7366882;19;20034;-69
2022/08/03 00:47:01;;;;;;;5.38;3.88;;;21.00;1.00;;;;;;7365707;19;20030;-69
2022/08/03 00:49:31;;;;;;;4.20;3.38;;;20.80;1.00;;;;;;7383169;19;20086;-69
2022/08/03 00:52:03;;;;;;;5.70;3.15;;;20.70;1.00;;;;;;7366758;19;20018;-69
2022/08/03 00:54:39;;;;;;;4.25;3.20;;;20.70;1.00;;;;;;7366550;19;20011;-68
2022/08/03 00:57:10;;;;;;;7.43;3.33;;;20.70;1.00;;;;;;7364668;19;20024;-69
2022/08/03 00:59:42;;;;;;;4.47;3.42;;;20.70;1.00;;;;;;7361717;19;20093;-68
2022/08/03 01:02:12;;;;;;;4.40;3.38;;;20.60;1.00;;;;;;7362915;19;20474;-69
2022/08/03 01:04:42;;;;;;;7.43;3.17;;;20.30;1.00;;;;;;7387042;19;20022;-69
2022/08/03 01:07:21;;;;;;;6.20;3.60;;;20.20;1.00;;;;;;7364201;19;20028;-69
2022/08/03 01:09:59;;;;;;;3.58;3.10;;;20.30;1.00;;;;;;7360812;19;20497;-69
2022/08/03 01:12:39;;;;;;;5.53;3.03;;;20.10;1.00;;;;;;7364867;19;20010;-69
2022/08/03 01:15:21;;;;;;;4.47;3.40;;;20.00;1.00;;;;;;7365022;19;20007;-69
2022/08/03 01:17:58;;;;;;;4.22;3.47;;;20.10;1.00;;;;;;7363326;19;20014;-69
2022/08/03 01:20:36;;;;;;;5.75;3.72;;;20.20;1.00;;;;;;7361679;19;20007;-68
2022/08/03 01:23:24;;;;;;;6.55;3.50;;;20.20;1.00;;;;;;7363995;19;20037;-69
2022/08/03 01:26:11;;;;;;;4.03;3.63;;;20.20;1.00;;;;;;7388173;19;20081;-69
2022/08/03 01:29:03;;;;;;;6.28;4.00;;;20.30;1.00;;;;;;7364910;19;20019;-69
2022/08/03 01:31:43;;;;;;;6.03;3.88;;;20.30;1.00;;;;;;7364972;19;20772;-69
2022/08/03 01:34:38;;;;;;;8.88;4.38;;;20.40;1.00;;;;;;7365602;19;20085;-69
2022/08/03 01:37:13;;;;;;;6.22;4.47;;;20.50;1.00;;;;;;7363640;19;20070;-69
2022/08/03 01:39:46;;;;;;;5.63;4.68;;;20.50;1.00;;;;;;7359695;19;20053;-69
2022/08/03 01:42:18;;;;;;;6.95;4.90;;;20.50;1.00;;;;;;7362091;19;20015;-68
2022/08/03 01:44:49;;;;;;;12.48;5.43;;;20.60;1.00;;;;;;7365585;19;20014;-70
2022/08/03 01:47:23;;;;;;;6.35;4.85;;;20.60;1.00;;;;;;7363936;19;20018;-69
2022/08/03 01:49:55;;;;;;;7.70;5.15;;;20.50;1.00;;;;;;7382151;19;20441;-69
2022/08/03 01:52:26;;;;;;;6.57;5.50;;;20.50;1.00;;;;;;7366856;19;20014;-68
2022/08/03 01:54:57;;;;;;;6.10;5.05;;;20.40;1.00;;;;;;7365739;19;20485;-69
2022/08/03 01:57:29;;;;;;;6.85;5.32;;;20.40;1.00;;;;;;7364637;19;20510;-68
2022/08/03 02:00:01;;;;;;;11.35;5.88;;;20.40;1.00;;;;;;7360990;19;20019;-69
2022/08/03 02:02:35;;;;;;;6.07;5.43;;;20.40;1.00;;;;;;7365912;19;20033;-69
2022/08/03 02:05:10;;;;;;;6.53;5.25;;;20.50;1.00;;;;;;7366223;19;20740;-70
2022/08/03 02:07:43;;;;;;;6.88;4.85;;;20.50;1.00;;;;;;7385765;19;20098;-69
2022/08/03 02:10:15;;;;;;;7.90;4.75;;;20.40;1.00;;;;;;7360511;19;20070;-69
2022/08/03 02:13:06;;;;;;;7.43;5.05;;;20.40;1.00;;;;;;7364621;19;20015;-69
2022/08/03 02:15:38;;;;;;;7.72;4.30;;;20.50;1.00;;;;;;7366620;19;20114;-69
2022/08/03 02:18:12;;;;;;;7.15;4.15;;;20.40;1.00;;;;;;7363153;19;20439;-69
2022/08/03 02:20:43;;;;;;;5.78;4.40;;;20.40;1.00;;;;;;7362216;19;20389;-68
2022/08/03 02:23:14;;;;;;;5.55;4.80;;;20.40;1.00;;;;;;7362345;19;20011;-69
2022/08/03 02:25:48;;;;;;;5.65;4.40;;;20.40;1.00;;;;;;7387013;19;20123;-69
2022/08/03 02:28:20;;;;;;;5.18;4.57;;;20.40;1.00;;;;;;7362162;19;20081;-69
2022/08/03 02:30:55;;;;;;;6.22;4.30;;;20.40;1.00;;;;;;7363240;19;20017;-69
2022/08/03 02:33:29;;;;;;;;;;;20.40;1.00;;;;;;7364962;19;20526;-69
2022/08/03 02:36:02;;;;;;;5.75;4.10;;;20.50;1.00;;;;;;7365269;19;19915;-69
2022/08/03 02:38:35;;;;;;;5.93;4.53;;;20.50;1.00;;;;;;7362928;19;20077;-69
2022/08/03 02:41:10;;;;;;;4.78;4.20;;;20.40;1.00;;;;;;7363082;19;20007;-69
2022/08/03 02:43:43;;;;;;;5.28;4.45;;;20.30;1.00;;;;;;7384344;19;20039;-68
2022/08/03 02:46:37;;;;;;;5.43;4.20;;;20.10;1.00;;;;;;7363604;19;20067;-69
2022/08/03 02:49:12;;;;;;;4.97;4.45;;;20.00;1.00;;;;;;7362102;19;20018;-69
2022/08/03 02:52:03;;;;;;;5.18;4.13;;;20.00;1.00;;;;;;7363655;19;20022;-69
2022/08/03 02:54:34;;;;;;;4.95;3.72;;;20.00;1.00;;;;;;7365019;19;20031;-68
2022/08/03 02:57:04;;;;;;;5.40;4.50;;;20.00;1.00;;;;;;7363343;19;20018;-69
2022/08/03 02:59:35;;;;;;;5.55;4.10;;;19.90;1.00;;;;;;7359026;19;20027;-68
2022/08/03 03:02:06;;;;;;;5.03;4.43;;;20.00;1.00;;;;;;7364364;19;20017;-68
2022/08/03 03:04:39;;;;;;;11.25;5.15;;;19.90;1.00;;;;;;7384100;19;20026;-68
2022/08/03 03:07:29;;;;;;;7.07;5.35;;;20.00;1.00;;;;;;7363188;19;20007;-68
2022/08/03 03:10:14;;;;;;;8.15;5.05;;;20.00;1.00;;;;;;7359963;19;20022;-69
2022/08/03 03:12:46;;;;;;;7.93;5.55;;;19.90;1.00;;;;;;7363486;19;20006;-68
2022/08/03 03:15:16;;;;;;;12.82;5.90;;;19.90;1.00;;;;;;7363554;19;20014;-68
2022/08/03 03:17:48;;;;;;;6.25;5.05;;;19.80;1.00;;;;;;7360575;19;20010;-68
2022/08/03 03:20:21;;;;;;;6.47;4.85;;;19.90;1.00;;;;;;7357955;19;20031;-67
2022/08/03 03:23:05;;;;;;;6.30;4.80;;;19.90;1.00;;;;;;7361742;19;20550;-69
2022/08/03 03:25:35;;;;;;;5.65;5.05;;;19.90;1.00;;;;;;7389052;19;20474;-69
2022/08/03 03:28:06;;;;;;;8.50;4.70;;;19.80;1.00;;;;;;7372692;19;20020;-68
2022/08/03 03:30:36;;;;;;;7.38;5.20;;;19.90;1.00;;;;;;7373132;19;20090;-68
2022/08/03 03:33:09;;;;;;;8.53;5.03;;;19.80;1.00;;;;;;7371989;19;20504;-69
2022/08/03 03:35:45;;;;;;;6.90;5.40;;;19.70;1.00;;;;;;7372157;19;20038;-69
2022/08/03 03:38:23;;;;;;;6.30;5.53;;;19.70;1.00;;;;;;7372964;19;20022;-68
2022/08/03 03:40:57;;;;;;;7.53;5.57;;;19.70;1.00;;;;;;7395335;19;20011;-68
2022/08/03 03:43:30;;;;;;;7.55;5.25;;;19.70;1.00;;;;;;7371865;19;20013;-68
2022/08/03 03:46:00;;;;;;;5.82;5.00;;;19.70;1.00;;;;;;7371848;19;20094;-69
2022/08/03 03:48:30;;;;;;;6.38;5.28;;;19.70;1.00;;;;;;7372351;19;20006;-68
2022/08/03 03:51:04;;;;;;;9.77;5.78;;;19.70;1.00;;;;;;7372514;19;20022;-67
2022/08/03 03:53:34;;;;;;;6.10;5.30;;;19.70;1.00;;;;;;7372788;19;20014;-69
2022/08/03 03:56:04;;;;;;;5.95;5.07;;;19.60;1.00;;;;;;7371859;19;20011;-68
2022/08/03 03:58:35;;;;;;;9.60;5.40;;;19.60;1.00;;;;;;7394375;19;20026;-68
2022/08/03 04:01:05;;;;;;;7.40;5.65;;;19.60;1.00;;;;;;7372889;19;20090;-68
2022/08/03 04:03:34;;;;;;;7.70;5.32;;;19.70;1.00;;;;;;7370636;19;20628;-69
2022/08/03 04:11:49;;;;;;;6.18;5.07;;;19.80;1.00;;;;;;7372129;19;20019;-68
2022/08/03 04:14:24;;;;;;;6.50;5.13;;;19.80;1.00;;;;;;7372616;19;20098;-68
2022/08/03 04:16:58;;;;;;;12.70;5.68;;;19.80;1.00;;;;;;7391140;19;20442;-69
2022/08/03 04:19:32;;;;;;;7.00;5.30;;;19.70;1.00;;;;;;7371873;19;20492;-69
2022/08/03 04:22:08;;;;;;;8.65;5.10;;;20.40;1.00;;;;;;7371193;19;20105;-69
2022/08/03 04:24:41;;;;;;;11.02;5.57;;;21.10;1.00;;;;;;7369552;19;20015;-69
2022/08/03 04:27:14;;;;;;;6.10;4.87;;;21.20;1.00;;;;;;7370536;19;20359;-69
2022/08/03 04:29:48;;;;;;;64.80;17.60;;;21.50;1.00;;;;;;7370806;19;20010;-68
2022/08/03 04:32:19;;;;;;;7.10;5.63;;;20.70;1.00;;;;;;7373179;19;20086;-68
2022/08/03 04:34:49;;;;;;;8.40;5.63;;;20.40;1.00;;;;;;7392542;19;20474;-69
2022/08/03 04:37:30;;;;;;;7.97;5.25;;;21.70;1.00;;;;;;7366977;19;20074;-69
2022/08/03 04:40:03;;;;;;;7.63;5.72;;;23.10;1.00;;;;;;7370372;19;20051;-67
2022/08/03 04:42:35;;;;;;;5.55;4.90;;;23.40;1.00;;;;;;7371010;19;20085;-69
2022/08/03 04:45:07;;;;;;;6.43;4.88;;;23.10;1.00;;;;;;7370691;19;20018;-70
2022/08/03 04:47:39;;;;;;;7.93;5.47;;;24.00;1.00;;;;;;7369625;19;20085;-68
2022/08/03 04:50:10;;;;;;;10.00;5.68;;;24.20;1.00;;;;;;7372329;19;20014;-69
2022/08/03 04:52:46;;;;;;;7.13;5.43;;;24.20;1.00;;;;;;7392768;19;20014;-69
2022/08/03 04:55:27;;;;;;;12.07;5.83;;;24.80;1.00;;;;;;7370703;19;20055;-69
2022/08/03 04:57:57;;;;;;;8.43;5.45;;;25.20;1.00;;;;;;7371028;19;20074;-69
2022/08/03 05:00:29;;;;;;;7.57;4.97;;;25.00;1.00;;;;;;7370829;19;20006;-68
2022/08/03 05:02:59;;;;;;;6.53;4.63;;;25.00;1.00;;;;;;7370305;19;20018;-69
2022/08/03 05:05:29;;;;;;;6.78;4.57;;;24.80;1.00;;;;;;7368818;19;20014;-69
2022/08/03 05:08:21;;;;;;;6.00;4.70;;;25.00;1.00;;;;;;7370875;19;20055;-68
2022/08/03 05:10:57;;;;;;;11.00;5.90;;;25.00;1.00;;;;;;7391891;19;20541;-69
2022/08/03 05:13:28;;;;;;;6.82;4.95;;;25.40;1.00;;;;;;7369739;19;20359;-69
2022/08/03 05:15:58;;;;;;;4.85;4.32;;;26.10;1.00;;;;;;7369695;19;20070;-69
2022/08/03 05:18:28;;;;;;;8.30;5.05;;;25.90;1.00;;;;;;7368880;19;20090;-69
2022/08/03 05:20:57;;;;;;;6.75;4.97;;;26.40;1.00;;;;;;7369738;19;20418;-69
2022/08/03 05:23:30;;;;;;;7.05;4.40;;;25.90;1.00;;;;;;7369370;19;20018;-67
2022/08/03 05:26:00;;;;;;;7.28;5.18;;;27.00;1.00;;;;;;7386512;19;20081;-71
2022/08/03 05:28:30;;;;;;;6.05;4.50;;;26.90;1.00;;;;;;7391833;19;20017;-69
2022/08/03 05:30:59;;;;;;;7.07;4.68;;;26.70;1.00;;;;;;7367768;19;20010;-68
2022/08/03 05:33:29;;;;;;;6.18;4.60;;;26.60;1.00;;;;;;7367912;19;20023;-69
2022/08/03 05:35:59;;;;;;;9.23;4.78;;;26.10;1.00;;;;;;7369070;19;20102;-69
2022/08/03 05:38:35;;;;;;;7.32;5.55;;;26.70;1.00;;;;;;7368973;19;20014;-69
2022/08/03 05:41:05;;;;;;;6.95;4.90;;;26.40;1.00;;;;;;7369791;19;20112;-70
2022/08/03 05:43:53;;;;;;;13.02;4.78;;;26.80;1.00;;;;;;7390339;19;20021;-68
2022/08/03 05:46:24;;;;;;;9.10;5.40;;;27.00;1.00;;;;;;7368623;19;20513;-69
2022/08/03 05:48:54;;;;;;;5.47;4.50;;;26.60;1.00;;;;;;7368213;19;20010;-69
2022/08/03 05:51:24;;;;;;;6.18;4.38;;;26.50;1.00;;;;;;7369470;19;20017;-69
2022/08/03 05:53:57;;;;;;;6.88;4.38;;;26.60;1.00;;;;;;7368988;19;20094;-69
2022/08/03 05:56:27;;;;;;;7.15;4.75;;;26.20;1.00;;;;;;7367593;19;20028;-69
2022/08/03 05:58:57;;;;;;;7.75;4.80;;;25.80;1.00;;;;;;7390984;19;20077;-69
2022/08/03 06:01:40;;;;;;;6.05;5.30;;;23.60;1.00;;;;;;7369214;19;20014;-70
2022/08/03 06:04:10;;;;;;;6.32;4.40;;;22.70;1.00;;;;;;7367112;19;20034;-68
2022/08/03 06:06:42;;;;;;;7.13;4.57;;;23.00;1.00;;;;;;7366273;19;20016;-69
2022/08/03 06:09:14;;;;;;;8.50;4.50;;;23.30;1.00;;;;;;7367673;19;20073;-68
2022/08/03 06:11:44;;;;;;;9.60;4.68;;;23.30;1.00;;;;;;7367844;19;20074;-68
2022/08/03 06:14:14;;;;;;;11.02;4.68;;;23.40;1.00;;;;;;7369075;19;20037;-68
2022/08/03 06:16:44;;;;;;;8.88;5.20;;;23.40;1.00;;;;;;7389086;19;20082;-70
2022/08/03 06:19:14;;;;;;;7.55;4.47;;;23.50;1.00;;;;;;7367495;19;20036;-70
2022/08/03 06:21:44;;;;;;;9.52;4.53;;;23.80;1.00;;;;;;7367607;19;20010;-69
2022/08/03 06:24:18;;;;;;;7.20;4.65;;;24.00;1.00;;;;;;7368057;19;20103;-69
2022/08/03 06:26:53;;;;;;;6.40;4.55;;;24.30;1.00;;;;;;7365369;19;20018;-69
2022/08/03 06:29:23;;;;;;;6.60;3.97;;;24.00;1.00;;;;;;7368939;19;20089;-70
2022/08/03 06:31:53;;;;;;;4.70;4.13;;;25.70;1.00;;;;;;7390321;19;20007;-70
2022/08/03 06:34:23;;;;;;;8.10;4.63;;;27.10;1.00;;;;;;7366415;19;20015;-70
2022/08/03 06:37:04;;;;;;;4.60;3.95;;;27.70;1.00;;;;;;7365337;19;20022;-68
2022/08/03 06:39:36;;;;;;;6.22;4.25;;;27.70;1.00;;;;;;7366634;19;20098;-69
2022/08/03 06:42:09;;;;;;;6.93;4.15;;;27.20;1.00;;;;;;7365742;19;20530;-68
2022/08/03 06:44:39;;;;;;;4.63;3.55;;;25.90;1.00;;;;;;7365349;19;20007;-68
2022/08/03 06:47:09;;;;;;;5.13;3.85;;;25.00;1.00;;;;;;7365846;19;20020;-70
2022/08/03 06:49:40;;;;;;;6.78;3.55;;;24.60;1.00;;;;;;7388305;19;20552;-69
2022/08/03 06:52:10;;;;;;;5.80;3.50;;;24.50;1.00;;;;;;7366497;19;20010;-70
2022/08/03 06:54:42;;;;;;;5.78;3.15;;;24.80;1.00;;;;;;7367991;19;20018;-69
2022/08/03 06:57:13;;;;;;;7.55;3.53;;;25.30;1.00;;;;;;7365135;19;20114;-70
2022/08/03 06:59:42;;;;;;;4.57;3.00;;;25.10;1.00;;;;;;7368379;19;20092;-70
2022/08/03 07:02:32;;;;;;;4.15;2.83;;;25.50;1.00;;;;;;7373627;19;20110;-69
2022/08/03 07:05:02;;;;;;;3.17;2.88;;;25.70;1.00;;;;;;7370511;19;20018;-69
2022/08/03 07:07:32;;;;;;;2.90;2.60;;;25.60;1.00;;;;;;7393120;19;20031;-69
2022/08/03 07:10:05;;;;;;;7.15;3.20;;;25.70;1.00;;;;;;7374277;19;20576;-69
2022/08/03 07:12:36;;;;;;;10.13;3.10;;;25.80;1.00;;;;;;7373902;19;20090;-69
2022/08/03 07:15:24;;;;;;;4.65;2.72;;;25.60;1.00;;;;;;7373651;19;20488;-69
2022/08/03 07:18:14;;;;;;;4.45;3.08;;;26.00;1.00;;;;;;7372828;19;20079;-69
2022/08/03 07:20:44;;;;;;;4.35;2.90;;;26.20;1.00;;;;;;7372059;19;20039;-69
2022/08/03 07:23:14;;;;;;;3.85;2.72;;;26.30;1.00;;;;;;7374354;19;20066;-68
2022/08/03 07:25:50;;;;;;;6.38;3.38;;;26.40;1.00;;;;;;7394425;19;20021;-69
2022/08/03 07:28:23;;;;;;;3.97;2.67;;;26.50;1.00;;;;;;7371759;19;20015;-69
2022/08/03 07:30:53;;;;;;;12.40;10.65;;;26.80;1.00;;;;;;7372287;19;20007;-69
2022/08/03 07:33:23;;;;;;;4.35;2.80;;;26.90;1.00;;;;;;7370714;19;20502;-69
2022/08/03 07:35:53;;;;;;;3.95;3.20;;;27.30;1.00;;;;;;7372174;19;20085;-69
2022/08/03 07:38:23;;;;;;;5.03;2.53;;;27.30;1.00;;;;;;7373290;19;20014;-69
2022/08/03 07:40:55;;;;;;;3.40;2.60;;;27.20;1.00;;;;;;7395492;19;20350;-69
2022/08/03 07:43:25;;;;;;;3.85;2.50;;;27.10;1.00;;;;;;7372003;19;20023;-69
2022/08/03 07:45:55;;;;;;;3.78;2.30;;;27.60;1.00;;;;;;7371690;19;20568;-69
2022/08/03 07:48:25;;;;;;;5.55;2.30;;;27.80;1.00;;;;;;7372222;19;20089;-68
2022/08/03 07:50:55;;;;;;;3.53;2.20;;;27.50;1.00;;;;;;7372657;19;20027;-69
2022/08/03 07:53:25;;;;;;;4.60;2.25;;;27.70;1.00;;;;;;7371789;19;20734;-70
2022/08/03 07:55:57;;;;;;;5.32;2.40;;;27.80;1.00;;;;;;7393884;19;20462;-69
2022/08/03 07:58:27;;;;;;;5.75;2.38;;;27.40;1.00;;;;;;7372014;19;20010;-69
2022/08/03 08:00:57;;;;;;;2.78;2.22;;;27.20;1.00;;;;;;7370591;19;20450;-69
2022/08/03 08:03:28;;;;;;;2.83;2.35;;;27.50;1.00;;;;;;7371237;19;20637;-69
2022/08/03 08:06:18;;;;;;;2.30;2.05;;;27.60;1.00;;;;;;7370965;19;20418;-69
2022/08/03 08:08:49;;;;;;;4.55;2.47;;;27.80;1.00;;;;;;7373105;19;20038;-68
2022/08/03 08:11:21;;;;;;;2.92;2.00;;;27.90;1.00;;;;;;7372159;19;20049;-70
2022/08/03 08:13:51;;;;;;;2.83;2.10;;;28.20;1.00;;;;;;7394476;19;20017;-69
2022/08/03 08:16:21;;;;;;;3.90;2.00;;;28.20;1.00;;;;;;7370831;19;20081;-71
2022/08/03 08:18:51;;;;;;;2.67;1.90;;;28.30;1.00;;;;;;7370676;19;20026;-70
2022/08/03 08:21:23;;;;;;;2.25;1.50;;;28.40;1.00;;;;;;7371858;19;20016;-70
2022/08/03 08:24:13;;;;;;;3.05;1.88;;;28.40;1.00;;;;;;7372270;19;20082;-71
2022/08/03 08:26:51;;;;;;;2.75;1.60;;;28.30;1.00;;;;;;7369355;19;20018;-69
2022/08/03 08:29:22;;;;;;;2.80;1.60;;;28.40;1.00;;;;;;7370899;19;20016;-69
2022/08/03 08:31:51;;;;;;;3.97;1.70;;;28.40;1.00;;;;;;7393482;19;20022;-69
2022/08/03 08:34:21;;;;;;;4.18;1.40;;;28.70;1.00;;;;;;7370614;19;20539;-70
2022/08/03 08:36:51;;;;;;;4.53;1.63;;;28.80;1.00;;;;;;7369558;19;20374;-70
2022/08/03 08:39:21;;;;;;;1.30;1.10;;;29.00;1.00;;;;;;7371278;19;20082;-70
2022/08/03 08:41:55;;;;;;;1.80;1.30;;;28.90;1.00;;;;;;7370829;19;20006;-68
2022/08/03 08:44:25;;;;;;;;;;;28.80;1.00;;;;;;7372634;19;20078;-70
2022/08/03 08:46:56;;;;;;;1.77;1.42;;;29.00;1.00;;;;;;7391598;19;19923;-70
2022/08/03 08:49:29;;;;;;;3.92;1.50;;;28.90;1.00;;;;;;7370589;19;20010;-69
2022/08/03 08:52:01;;;;;;;2.78;1.40;;;29.40;1.00;;;;;;7370495;19;20010;-70
2022/08/03 08:54:32;;;;;;;1.40;1.30;;;29.50;1.00;;;;;;7370428;19;20014;-70
2022/08/03 08:57:07;;;;;;;1.92;1.38;;;29.60;1.00;;;;;;7367576;19;20014;-69
2022/08/03 08:59:58;;;;;;;3.65;1.30;;;29.30;1.00;;;;;;7370347;19;20010;-69
2022/08/03 09:02:31;;;;;;;1.42;1.30;;;29.30;1.00;;;;;;7370009;19;20074;-69
2022/08/03 09:05:02;;;;;;;2.25;1.15;;;29.60;1.00;;;;;;7377714;19;20035;-70
2022/08/03 09:07:36;;;;;;;2.22;1.67;;;29.50;1.00;;;;;;7389713;19;20011;-69
2022/08/03 09:10:08;;;;;;;1.35;1.15;;;30.00;1.00;;;;;;7369410;19;20545;-69
2022/08/03 09:12:48;;;;;;;1.45;1.15;;;30.10;1.00;;;;;;7369871;19;20085;-68
2022/08/03 09:15:24;;;;;;;3.50;1.10;;;30.00;1.00;;;;;;7369418;19;20010;-69
2022/08/03 09:17:55;;;;;;;3.38;1.08;;;30.20;1.00;;;;;;7369170;19;20117;-70
2022/08/03 09:20:27;;;;;;;1.20;1.10;;;30.20;1.00;;;;;;7369723;19;20025;-69
2022/08/03 09:22:59;;;;;;;2.38;1.35;;;30.30;1.00;;;;;;7390439;19;20011;-69
2022/08/03 09:25:30;;;;;;;2.10;1.20;;;30.10;1.00;;;;;;7370567;19;20040;-70
2022/08/03 09:28:11;;;;;;;1.70;1.48;;;30.00;1.00;;;;;;7368236;19;20081;-69
2022/08/03 09:30:43;;;;;;;2.50;1.23;;;30.20;1.00;;;;;;7370211;19;20102;-70
2022/08/03 09:33:15;;;;;;;1.63;1.20;;;30.40;1.00;;;;;;7369160;19;20026;-70
2022/08/03 09:35:46;;;;;;;1.70;1.30;;;30.50;1.00;;;;;;7369296;19;20507;-69
2022/08/03 09:38:27;;;;;;;1.85;1.50;;;30.50;1.00;;;;;;7368145;19;20034;-67
2022/08/03 09:40:58;;;;;;;1.95;1.20;;;30.40;1.00;;;;;;7390990;19;20006;-67
2022/08/03 09:43:50;;;;;;;1.90;1.20;;;30.20;1.00;;;;;;7368487;19;20010;-68
2022/08/03 09:46:23;;;;;;;1.45;1.10;;;30.20;1.00;;;;;;7366391;19;20006;-69
2022/08/03 09:48:53;;;;;;;2.87;1.37;;;30.40;1.00;;;;;;7354329;19;20557;-68
2022/08/03 09:51:26;;;;;;;3.28;1.17;;;30.20;1.00;;;;;;7365598;19;20014;-69
2022/08/03 09:54:28;;;;;;;2.50;1.25;;;30.20;1.00;;;;;;7364798;19;20010;-69
2022/08/03 09:56:59;;;;;;;2.45;1.45;;;30.40;1.00;;;;;;7364676;19;20101;-69
2022/08/03 09:59:33;;;;;;;1.60;1.30;;;30.20;1.00;;;;;;7363224;19;20020;-68
2022/08/03 10:02:03;;;;;;;7.20;1.40;;;30.20;1.00;;;;;;7366205;19;20006;-69
2022/08/03 10:04:33;;;;;;;4.47;1.65;;;30.40;1.00;;;;;;7387445;19;20019;-69
2022/08/03 10:07:05;;;;;;;2.75;1.50;;;30.30;1.00;;;;;;7363813;19;20011;-67
2022/08/03 10:09:35;;;;;;;1.92;1.13;;;30.10;1.00;;;;;;7360335;19;20104;-67
2022/08/03 10:12:13;;;;;;;2.85;1.48;;;30.00;1.00;;;;;;7364402;19;20086;-68
2022/08/03 10:14:45;;;;;;;2.60;1.50;;;30.70;1.00;;;;;;7365345;19;20030;-68
2022/08/03 10:17:15;;;;;;;1.23;1.13;;;30.50;1.00;;;;;;7363949;19;20018;-69
2022/08/03 10:19:46;;;;;;;1.38;1.27;;;30.70;1.00;;;;;;7379858;19;20090;-68
2022/08/03 10:22:17;;;;;;;2.28;1.30;;;30.70;1.00;;;;;;7365291;19;20026;-68
2022/08/03 10:24:53;;;;;;;2.65;1.90;;;30.70;1.00;;;;;;7363052;19;20024;-68
2022/08/03 10:27:25;;;;;;;1.60;1.50;;;30.80;1.00;;;;;;7360108;19;20014;-70
2022/08/03 10:30:02;;;;;;;2.53;1.60;;;30.80;1.00;;;;;;7358087;19;20011;-69
2022/08/03 10:32:35;;;;;;;2.05;1.40;;;31.00;1.00;;;;;;7363881;19;20034;-70
2022/08/03 10:35:08;;;;;;;3.15;1.50;;;30.90;1.00;;;;;;7366933;19;20374;-69
2022/08/03 10:37:55;;;;;;;3.47;1.48;;;30.70;1.00;;;;;;7386068;19;20026;-68
2022/08/03 10:40:30;;;;;;;2.42;1.50;;;30.80;1.00;;;;;;7370171;19;20082;-70
2022/08/03 10:43:23;;;;;;;1.38;1.27;;;30.90;1.00;;;;;;7369756;19;20376;-70
2022/08/03 10:45:57;;;;;;;2.80;1.60;;;31.00;1.00;;;;;;7369605;19;20501;-70
2022/08/03 10:48:28;;;;;;;2.85;1.63;;;30.80;1.00;;;;;;7362793;19;20010;-70
2022/08/03 10:50:58;;;;;;;1.83;1.70;;;30.80;1.00;;;;;;7368603;19;20138;-69
2022/08/03 10:53:39;;;;;;;1.30;1.15;;;31.30;1.00;;;;;;7370745;19;20094;-71
2022/08/03 10:59:58;;;;;;;2.88;1.30;;;31.30;1.00;;;;;;7365419;19;20015;-71
2022/08/03 11:02:58;;;;;;;5.20;1.60;;;31.50;1.00;;;;;;7370317;19;20003;-70
2022/08/03 11:05:33;;;;;;;1.70;1.42;;;31.10;1.00;;;;;;7370237;19;20082;-72
2022/08/03 11:08:24;;;;;;;2.08;1.35;;;31.40;1.00;;;;;;7364187;19;20393;-70
2022/08/03 11:10:56;;;;;;;1.88;1.20;;;31.50;1.00;;;;;;7394028;19;20018;-70
2022/08/03 11:13:29;;;;;;;3.33;1.60;;;31.30;1.00;;;;;;7372051;19;20078;-69
2022/08/03 11:16:01;;;;;;;;;;;31.50;1.00;;;;;;7369231;19;20019;-71
2022/08/03 11:18:35;;;;;;;4.40;1.50;;;31.30;1.00;;;;;;7365156;19;19922;-72
2022/08/03 11:21:07;;;;;;;2.67;1.60;;;31.70;1.00;;;;;;7371713;19;20418;-69
2022/08/03 11:23:46;;;;;;;3.65;1.55;;;31.80;1.00;;;;;;7371068;19;20353;-70
2022/08/03 11:26:35;;;;;;;1.90;1.67;;;31.70;1.00;;;;;;7369763;19;20032;-70
2022/08/03 11:29:29;;;;;;;1.90;1.75;;;31.60;1.00;;;;;;7361792;19;20078;-71
2022/08/03 11:31:59;;;;;;;4.22;1.60;;;31.80;1.00;;;;;;7391832;19;20494;-72
2022/08/03 11:34:29;;;;;;;2.72;1.73;;;31.90;1.00;;;;;;7367879;19;20015;-71
2022/08/03 11:37:26;;;;;;;2.72;1.40;;;32.00;1.00;;;;;;7366306;19;20097;-71
2022/08/03 11:40:03;;;;;;;2.80;1.60;;;31.90;1.00;;;;;;7361948;19;20433;-73
2022/08/03 11:42:43;;;;;;;3.38;1.38;;;32.10;1.00;;;;;;7369980;19;20017;-70
2022/08/03 11:45:14;;;;;;;6.85;1.75;;;32.00;1.00;;;;;;7367525;19;20006;-70
2022/08/03 11:47:44;;;;;;;1.40;1.30;;;31.80;1.00;;;;;;7362435;19;20011;-72
2022/08/03 11:50:21;;;;;;;3.33;1.23;;;32.00;1.00;;;;;;7366906;19;20040;-70
2022/08/03 11:52:53;;;;;;;3.15;1.70;;;32.00;1.00;;;;;;7390530;19;20078;-70
2022/08/03 11:55:23;;;;;;;1.60;1.50;;;31.90;1.00;;;;;;7368181;19;20006;-71
2022/08/03 11:58:01;;;;;;;2.83;1.48;;;32.00;1.00;;;;;;7362694;19;20010;-70
2022/08/03 12:00:52;;;;;;;2.03;1.60;;;31.90;1.00;;;;;;7368273;19;20018;-70
2022/08/03 12:03:22;;;;;;;2.30;1.33;;;32.00;1.00;;;;;;7368297;19;21115;-72
2022/08/03 12:05:54;;;;;;;1.95;1.33;;;32.30;1.00;;;;;;7365008;19;20506;-71
2022/08/03 12:08:35;;;;;;;1.70;1.30;;;31.80;1.00;;;;;;7361047;19;20106;-72
2022/08/03 12:11:07;;;;;;;1.90;1.48;;;32.40;1.00;;;;;;7367055;19;20035;-71
2022/08/03 12:13:45;;;;;;;1.75;1.60;;;32.10;1.00;;;;;;7389261;19;20553;-73
2022/08/03 12:16:35;;;;;;;1.58;1.20;;;32.30;1.00;;;;;;7365515;19;20097;-71
2022/08/03 12:19:07;;;;;;;1.70;1.60;;;32.50;1.00;;;;;;7361377;19;20081;-72
2022/08/03 12:21:47;;;;;;;2.10;1.27;;;32.10;1.00;;;;;;7367888;19;20481;-71
2022/08/03 12:24:41;;;;;;;1.08;0.95;;;31.90;1.00;;;;;;7367217;19;20017;-70
2022/08/03 12:27:11;;;;;;;2.88;1.63;;;31.80;1.00;;;;;;7367209;19;20479;-70
2022/08/03 12:29:41;;;;;;;1.95;1.25;;;32.00;1.00;;;;;;7359102;19;20411;-71
2022/08/03 12:32:26;;;;;;;3.65;1.40;;;32.30;1.00;;;;;;7368247;19;20018;-72
2022/08/03 12:34:59;;;;;;;1.88;1.20;;;32.30;1.00;;;;;;7390661;19;20500;-71
2022/08/03 12:37:30;;;;;;;3.58;2.00;;;32.60;1.00;;;;;;7367299;19;20521;-71
2022/08/03 12:40:05;;;;;;;3.03;1.75;;;32.50;1.00;;;;;;7361589;19;20510;-69
2022/08/03 12:42:40;;;;;;;2.08;1.80;;;32.50;1.00;;;;;;7366603;19;20014;-69
2022/08/03 12:45:27;;;;;;;2.08;1.42;;;32.40;1.00;;;;;;7367388;19;20018;-69
2022/08/03 12:47:59;;;;;;;4.68;1.70;;;32.30;1.00;;;;;;7363886;19;20078;-70
2022/08/03 12:50:31;;;;;;;5.47;1.90;;;32.50;1.00;;;;;;7366046;19;20784;-71
2022/08/03 12:53:03;;;;;;;3.78;1.63;;;32.80;1.00;;;;;;7376239;19;20010;-70
2022/08/03 12:55:37;;;;;;;2.83;1.48;;;32.70;1.00;;;;;;7389498;19;20095;-72
2022/08/03 12:58:35;;;;;;;1.38;1.27;;;32.70;1.00;;;;;;7359170;19;20089;-71
2022/08/03 13:01:08;;;;;;;2.40;1.50;;;32.50;1.00;;;;;;7366719;19;20015;-69
2022/08/03 13:03:44;;;;;;;4.57;1.60;;;32.80;1.00;;;;;;7367084;19;20089;-73
2022/08/03 13:06:26;;;;;;;1.90;1.40;;;32.30;1.00;;;;;;7363360;19;20011;-70
2022/08/03 13:09:13;;;;;;;1.48;1.23;;;32.30;1.00;;;;;;7362451;19;20010;-69
2022/08/03 13:12:05;;;;;;;2.78;1.50;;;32.40;1.00;;;;;;7358449;19;20038;-71
2022/08/03 13:14:37;;;;;;;2.78;1.90;;;32.50;1.00;;;;;;7380733;19;20048;-70
2022/08/03 13:17:08;;;;;;;1.63;1.52;;;32.50;1.00;;;;;;7381160;19;20510;-70
2022/08/03 13:19:39;;;;;;;2.45;1.58;;;32.60;1.00;;;;;;7377884;19;20023;-69
2022/08/03 13:22:16;;;;;;;1.90;1.30;;;32.50;1.00;;;;;;7385748;19;20019;-70
2022/08/03 13:24:51;;;;;;;1.45;1.30;;;32.50;1.00;;;;;;7338483;19;20011;-70
2022/08/03 13:27:29;;;;;;;3.00;1.55;;;32.60;1.00;;;;;;7382000;19;20019;-71
2022/08/03 13:30:25;;;;;;;1.73;1.10;;;32.80;1.00;;;;;;7361874;19;20014;-70
2022/08/03 13:33:00;;;;;;;1.98;1.58;;;33.10;1.00;;;;;;7365218;19;20474;-70
2022/08/03 13:35:31;;;;;;;1.33;1.23;;;32.70;1.00;;;;;;7366028;19;20018;-70
2022/08/03 13:38:01;;;;;;;1.65;1.35;;;33.10;1.00;;;;;;7364010;19;20082;-70
2022/08/03 13:40:33;;;;;;;2.13;1.40;;;32.90;1.00;;;;;;7365523;19;20014;-72
2022/08/03 13:43:13;;;;;;;2.85;1.20;;;33.20;1.00;;;;;;7367600;19;20010;-69
2022/08/03 13:45:43;;;;;;;1.55;1.33;;;33.00;1.00;;;;;;7367438;19;20018;-70